createdAt,value
2023-01-13T00:00:57.069Z,10.28
2023-01-13T00:01:56.987Z,10.23
2023-01-13T00:02:56.913Z,10.29
2023-01-13T00:03:56.832Z,10.36
2023-01-13T00:04:56.793Z,10.39
2023-01-13T00:05:56.662Z,10.34
2023-01-13T00:06:56.581Z,10.33
2023-01-13T00:07:56.504Z,10.23
2023-01-13T00:08:56.417Z,10.22
2023-01-13T00:09:56.337Z,10.25
2023-01-13T00:10:56.258Z,10.25
2023-01-13T00:11:56.174Z,10.21
2023-01-13T00:12:56.103Z,10.19
2023-01-13T00:13:56.038Z,10.23
2023-01-13T00:14:55.936Z,10.23
2023-01-13T00:15:55.901Z,10.29
2023-01-13T00:16:55.772Z,10.23
2023-01-13T00:17:55.687Z,10.23
2023-01-13T00:18:55.616Z,10.25
2023-01-13T00:19:55.527Z,10.23
2023-01-13T00:20:55.446Z,10.23
2023-01-13T00:21:55.370Z,10.10
2023-01-13T00:22:55.316Z,10.22
2023-01-13T00:23:55.262Z,10.22
2023-01-13T00:24:55.120Z,10.18
2023-01-13T00:25:55.041Z,10.15
2023-01-13T00:26:54.958Z,10.13
2023-01-13T00:27:54.879Z,10.16
2023-01-13T00:28:54.805Z,10.10
2023-01-13T00:29:54.720Z,10.21
2023-01-13T00:30:54.648Z,10.16
2023-01-13T00:31:54.563Z,10.06
2023-01-13T00:32:54.472Z,10.21
2023-01-13T00:33:54.391Z,10.07
2023-01-13T00:34:54.312Z,10.23
2023-01-13T00:35:54.230Z,10.15
2023-01-13T00:36:54.150Z,10.16
2023-01-13T00:37:54.070Z,10.15
2023-01-13T00:38:54.003Z,10.19
2023-01-13T00:39:53.900Z,10.26
2023-01-13T00:40:53.821Z,10.22
2023-01-13T00:41:53.738Z,10.25
2023-01-13T00:42:53.664Z,10.25
2023-01-13T00:43:53.606Z,10.25
2023-01-13T00:44:53.499Z,10.23
2023-01-13T00:45:53.417Z,10.23
2023-01-13T00:46:53.410Z,10.26
2023-01-13T00:47:53.257Z,10.19
2023-01-13T00:48:53.177Z,10.22
2023-01-13T00:49:53.094Z,10.21
2023-01-13T00:50:53.014Z,10.22
2023-01-13T00:51:52.929Z,10.23
2023-01-13T00:52:52.848Z,10.29
2023-01-13T00:53:52.767Z,10.29
2023-01-13T00:54:52.685Z,10.26
2023-01-13T00:55:52.611Z,10.29
2023-01-13T00:56:52.522Z,10.18
2023-01-13T00:57:52.443Z,10.26
2023-01-13T00:58:52.359Z,10.18
2023-01-13T00:59:52.278Z,10.23
2023-01-13T01:00:52.338Z,10.08
2023-01-13T01:01:52.264Z,10.08
2023-01-13T01:02:52.044Z,10.18
2023-01-13T01:03:51.958Z,10.16
2023-01-13T01:04:51.879Z,10.16
2023-01-13T01:05:51.828Z,10.10
2023-01-13T01:06:51.713Z,10.15
2023-01-13T01:07:51.646Z,10.13
2023-01-13T01:08:51.561Z,10.11
2023-01-13T01:09:51.474Z,10.06
2023-01-13T01:10:51.388Z,10.01
2023-01-13T01:11:51.308Z,10.08
2023-01-13T01:12:51.227Z,10.03
2023-01-13T01:13:51.144Z,10.10
2023-01-13T01:14:51.063Z,10.06
2023-01-13T01:15:51.034Z,10.10
2023-01-13T01:16:50.909Z,10.04
2023-01-13T01:17:50.821Z,10.01
2023-01-13T01:18:50.742Z,9.97
2023-01-13T01:19:50.659Z,10.01
2023-01-13T01:20:50.597Z,9.90
2023-01-13T01:21:50.506Z,10.01
2023-01-13T01:22:50.413Z,9.89
2023-01-13T01:23:50.335Z,9.93
2023-01-13T01:24:50.251Z,9.88
2023-01-13T01:25:50.172Z,9.89
2023-01-13T01:26:50.088Z,9.96
2023-01-13T01:27:50.012Z,9.92
2023-01-13T01:28:49.929Z,9.98
2023-01-13T01:29:49.844Z,10.01
2023-01-13T01:30:49.766Z,10.00
2023-01-13T01:31:49.687Z,10.01
2023-01-13T01:32:49.618Z,9.98
2023-01-13T01:33:49.527Z,10.03
2023-01-13T01:34:49.444Z,9.93
2023-01-13T01:35:49.361Z,9.93
2023-01-13T01:36:49.290Z,9.83
2023-01-13T01:37:49.208Z,9.86
2023-01-13T01:38:49.117Z,9.98
2023-01-13T01:39:49.036Z,10.01
2023-01-13T01:40:48.968Z,9.96
2023-01-13T01:41:48.876Z,9.96
2023-01-13T01:42:48.791Z,9.92
2023-01-13T01:43:48.713Z,9.96
2023-01-13T01:44:50.653Z,9.88
2023-01-13T01:45:48.549Z,9.98
2023-01-13T01:46:48.503Z,10.01
2023-01-13T01:47:48.386Z,9.93
2023-01-13T01:48:48.309Z,9.97
2023-01-13T01:49:48.231Z,9.93
2023-01-13T01:50:48.152Z,9.98
2023-01-13T01:51:48.065Z,9.98
2023-01-13T01:52:47.997Z,9.90
2023-01-13T01:53:47.900Z,9.90
2023-01-13T01:54:47.820Z,9.89
2023-01-13T01:55:47.737Z,9.86
2023-01-13T01:56:47.664Z,9.98
2023-01-13T01:57:47.585Z,9.90
2023-01-13T01:58:47.514Z,9.89
2023-01-13T01:59:47.422Z,9.90
2023-01-13T02:00:47.358Z,9.96
2023-01-13T02:01:47.324Z,9.85
2023-01-13T02:02:47.214Z,9.88
2023-01-13T02:03:47.091Z,9.79
2023-01-13T02:04:47.016Z,9.89
2023-01-13T02:05:46.929Z,9.96
2023-01-13T02:06:46.841Z,9.97
2023-01-13T02:07:46.767Z,9.92
2023-01-13T02:08:46.685Z,9.92
2023-01-13T02:09:46.598Z,9.97
2023-01-13T02:10:46.525Z,10.03
2023-01-13T02:11:46.444Z,9.85
2023-01-13T02:12:46.357Z,9.97
2023-01-13T02:13:46.276Z,9.92
2023-01-13T02:14:46.199Z,9.96
2023-01-13T02:15:46.114Z,9.92
2023-01-13T02:16:46.045Z,9.89
2023-01-13T02:17:45.953Z,9.88
2023-01-13T02:18:45.876Z,9.83
2023-01-13T02:19:45.788Z,9.78
2023-01-13T02:20:45.705Z,9.97
2023-01-13T02:21:45.624Z,9.89
2023-01-13T02:22:45.544Z,9.86
2023-01-13T02:23:45.462Z,9.82
2023-01-13T02:24:45.388Z,9.82
2023-01-13T02:25:45.301Z,9.82
2023-01-13T02:26:45.223Z,9.74
2023-01-13T02:27:45.136Z,9.78
2023-01-13T02:28:45.062Z,9.83
2023-01-13T02:29:44.982Z,9.90
2023-01-13T02:30:44.894Z,9.82
2023-01-13T02:31:44.857Z,9.83
2023-01-13T02:32:44.734Z,9.78
2023-01-13T02:33:44.654Z,9.82
2023-01-13T02:34:44.570Z,9.82
2023-01-13T02:35:44.490Z,9.93
2023-01-13T02:36:44.408Z,9.82
2023-01-13T02:37:44.325Z,9.83
2023-01-13T02:38:44.248Z,9.78
2023-01-13T02:39:44.165Z,9.90
2023-01-13T02:40:44.079Z,9.90
2023-01-13T02:41:44.002Z,9.80
2023-01-13T02:42:43.923Z,9.92
2023-01-13T02:43:43.839Z,9.74
2023-01-13T02:44:43.761Z,9.86
2023-01-13T02:45:43.697Z,9.82
2023-01-13T02:46:43.597Z,9.90
2023-01-13T02:47:43.513Z,9.90
2023-01-13T02:48:43.437Z,9.93
2023-01-13T02:49:43.353Z,9.92
2023-01-13T02:50:43.269Z,9.89
2023-01-13T02:51:43.186Z,9.98
2023-01-13T02:52:43.104Z,9.86
2023-01-13T02:53:43.022Z,9.92
2023-01-13T02:54:42.955Z,9.96
2023-01-13T02:55:42.886Z,9.90
2023-01-13T02:56:42.783Z,9.97
2023-01-13T02:57:42.709Z,9.97
2023-01-13T02:58:42.617Z,9.96
2023-01-13T02:59:42.521Z,9.93
2023-01-13T03:00:42.424Z,10.03
2023-01-13T03:01:42.464Z,9.92
2023-01-13T03:02:42.278Z,10.06
2023-01-13T03:03:42.183Z,10.03
2023-01-13T03:04:42.101Z,9.89
2023-01-13T03:05:42.016Z,9.89
2023-01-13T03:06:41.937Z,10.04
2023-01-13T03:07:41.861Z,10.03
2023-01-13T03:08:41.781Z,10.00
2023-01-13T03:09:41.692Z,9.96
2023-01-13T03:10:41.616Z,9.93
2023-01-13T03:11:41.526Z,9.89
2023-01-13T03:12:41.450Z,9.93
2023-01-13T03:13:41.370Z,9.90
2023-01-13T03:14:41.285Z,10.00
2023-01-13T03:15:41.204Z,10.04
2023-01-13T03:16:41.154Z,10.04
2023-01-13T03:17:41.047Z,10.06
2023-01-13T03:18:40.973Z,10.08
2023-01-13T03:19:40.879Z,10.13
2023-01-13T03:20:40.799Z,10.10
2023-01-13T03:21:40.714Z,10.11
2023-01-13T03:22:40.635Z,10.10
2023-01-13T03:23:40.567Z,10.13
2023-01-13T03:24:40.486Z,10.10
2023-01-13T03:25:40.392Z,10.06
2023-01-13T03:26:40.308Z,10.10
2023-01-13T03:27:40.230Z,10.07
2023-01-13T03:28:40.148Z,10.08
2023-01-13T03:29:40.068Z,10.08
2023-01-13T03:30:40.025Z,10.03
2023-01-13T03:31:39.907Z,10.11
2023-01-13T03:32:39.828Z,10.08
2023-01-13T03:33:39.743Z,10.06
2023-01-13T03:34:39.670Z,10.08
2023-01-13T03:35:39.613Z,10.08
2023-01-13T03:36:39.493Z,10.04
2023-01-13T03:37:39.423Z,10.04
2023-01-13T03:38:39.348Z,10.04
2023-01-13T03:39:39.253Z,10.00
2023-01-13T03:40:39.172Z,10.11
2023-01-13T03:41:39.098Z,10.08
2023-01-13T03:42:39.011Z,10.06
2023-01-13T03:43:38.939Z,10.13
2023-01-13T03:44:38.850Z,10.07
2023-01-13T03:45:38.795Z,10.06
2023-01-13T03:46:38.683Z,10.07
2023-01-13T03:47:38.608Z,10.06
2023-01-13T03:48:38.540Z,10.08
2023-01-13T03:49:38.441Z,10.08
2023-01-13T03:50:38.365Z,10.08
2023-01-13T03:51:38.279Z,10.04
2023-01-13T03:52:38.210Z,10.07
2023-01-13T03:53:38.118Z,10.00
2023-01-13T03:54:38.044Z,10.11
2023-01-13T03:55:37.956Z,10.04
2023-01-13T03:56:37.880Z,10.01
2023-01-13T03:57:37.856Z,9.97
2023-01-13T03:58:37.711Z,9.93
2023-01-13T03:59:37.637Z,10.00
2023-01-13T04:00:37.550Z,9.92
2023-01-13T04:01:37.616Z,10.08
2023-01-13T04:02:37.381Z,10.06
2023-01-13T04:03:37.306Z,10.04
2023-01-13T04:04:37.223Z,10.04
2023-01-13T04:05:37.147Z,9.96
2023-01-13T04:06:37.062Z,9.88
2023-01-13T04:07:36.986Z,9.85
2023-01-13T04:08:36.896Z,9.88
2023-01-13T04:09:36.814Z,9.90
2023-01-13T04:10:36.736Z,9.90
2023-01-13T04:11:36.657Z,9.82
2023-01-13T04:12:36.576Z,9.74
2023-01-13T04:13:36.489Z,9.74
2023-01-13T04:14:36.420Z,9.89
2023-01-13T04:15:36.374Z,9.89
2023-01-13T04:16:37.672Z,9.89
2023-01-13T04:17:36.167Z,9.79
2023-01-13T04:18:36.090Z,9.85
2023-01-13T04:19:36.003Z,9.92
2023-01-13T04:20:35.923Z,9.85
2023-01-13T04:21:35.842Z,9.80
2023-01-13T04:22:35.764Z,9.85
2023-01-13T04:23:35.672Z,9.83
2023-01-13T04:24:35.592Z,9.86
2023-01-13T04:25:35.531Z,9.82
2023-01-13T04:26:35.433Z,9.78
2023-01-13T04:27:35.357Z,9.80
2023-01-13T04:28:35.289Z,9.78
2023-01-13T04:29:35.215Z,9.72
2023-01-13T04:30:35.114Z,9.68
2023-01-13T04:31:35.040Z,9.67
2023-01-13T04:32:34.946Z,9.75
2023-01-13T04:33:34.862Z,9.71
2023-01-13T04:34:34.785Z,9.70
2023-01-13T04:35:34.698Z,9.67
2023-01-13T04:36:34.625Z,9.71
2023-01-13T04:37:34.540Z,9.67
2023-01-13T04:38:34.471Z,9.55
2023-01-13T04:39:34.377Z,9.65
2023-01-13T04:40:34.297Z,9.70
2023-01-13T04:41:34.212Z,9.67
2023-01-13T04:42:34.138Z,9.70
2023-01-13T04:43:34.062Z,9.70
2023-01-13T04:44:33.979Z,9.53
2023-01-13T04:45:33.885Z,9.61
2023-01-13T04:46:33.934Z,9.67
2023-01-13T04:47:33.728Z,9.67
2023-01-13T04:48:33.643Z,9.71
2023-01-13T04:49:33.570Z,9.72
2023-01-13T04:50:33.485Z,9.70
2023-01-13T04:51:33.411Z,9.64
2023-01-13T04:52:33.317Z,9.64
2023-01-13T04:53:33.237Z,9.65
2023-01-13T04:54:33.175Z,9.71
2023-01-13T04:55:33.070Z,9.72
2023-01-13T04:56:32.991Z,9.80
2023-01-13T04:57:32.912Z,9.72
2023-01-13T04:58:32.840Z,9.71
2023-01-13T04:59:34.547Z,9.74
2023-01-13T05:00:32.694Z,9.65
2023-01-13T05:01:32.740Z,9.70
2023-01-13T05:02:32.507Z,9.68
2023-01-13T05:03:32.421Z,9.74
2023-01-13T05:04:32.386Z,9.72
2023-01-13T05:05:32.284Z,9.78
2023-01-13T05:06:32.181Z,9.71
2023-01-13T05:07:32.108Z,9.85
2023-01-13T05:08:32.024Z,9.80
2023-01-13T05:09:31.935Z,9.80
2023-01-13T05:10:31.865Z,9.80
2023-01-13T05:11:31.770Z,9.83
2023-01-13T05:12:31.707Z,9.82
2023-01-13T05:13:31.611Z,9.82
2023-01-13T05:14:31.530Z,9.83
2023-01-13T05:15:31.459Z,9.80
2023-01-13T05:16:31.436Z,9.75
2023-01-13T05:17:31.298Z,9.79
2023-01-13T05:18:31.229Z,9.75
2023-01-13T05:19:31.120Z,9.75
2023-01-13T05:20:31.051Z,9.83
2023-01-13T05:21:30.964Z,9.71
2023-01-13T05:22:30.883Z,9.78
2023-01-13T05:23:30.800Z,9.83
2023-01-13T05:24:30.726Z,9.75
2023-01-13T05:25:30.656Z,9.82
2023-01-13T05:26:30.557Z,9.82
2023-01-13T05:27:30.472Z,9.71
2023-01-13T05:28:30.395Z,9.67
2023-01-13T05:29:30.312Z,9.71
2023-01-13T05:30:30.245Z,9.72
2023-01-13T05:31:30.233Z,9.74
2023-01-13T05:32:30.090Z,9.83
2023-01-13T05:33:29.985Z,9.85
2023-01-13T05:34:29.910Z,9.83
2023-01-13T05:35:29.821Z,9.80
2023-01-13T05:36:29.748Z,9.75
2023-01-13T05:37:29.658Z,9.82
2023-01-13T05:38:29.584Z,9.80
2023-01-13T05:39:29.498Z,9.74
2023-01-13T05:40:29.417Z,9.67
2023-01-13T05:41:29.337Z,9.79
2023-01-13T05:42:29.260Z,9.82
2023-01-13T05:43:29.183Z,9.75
2023-01-13T05:44:29.093Z,9.79
2023-01-13T05:45:29.014Z,9.78
2023-01-13T05:46:28.992Z,9.79
2023-01-13T05:47:28.847Z,9.86
2023-01-13T05:48:28.770Z,9.80
2023-01-13T05:49:28.683Z,9.79
2023-01-13T05:50:28.616Z,9.79
2023-01-13T05:51:28.521Z,9.82
2023-01-13T05:52:28.443Z,9.80
2023-01-13T05:53:28.354Z,9.86
2023-01-13T05:54:28.288Z,9.85
2023-01-13T05:55:28.198Z,9.80
2023-01-13T05:56:28.118Z,9.80
2023-01-13T05:57:28.036Z,9.74
2023-01-13T05:58:27.986Z,9.85
2023-01-13T05:59:27.873Z,9.78
2023-01-13T06:00:27.790Z,9.71
2023-01-13T06:01:27.756Z,9.65
2023-01-13T06:02:27.627Z,9.70
2023-01-13T06:03:27.554Z,9.71
2023-01-13T06:04:27.559Z,9.68
2023-01-13T06:05:27.385Z,9.72
2023-01-13T06:06:27.299Z,9.68
2023-01-13T06:07:27.217Z,9.65
2023-01-13T06:08:27.145Z,9.61
2023-01-13T06:09:27.063Z,9.61
2023-01-13T06:10:26.977Z,9.61
2023-01-13T06:11:26.897Z,9.53
2023-01-13T06:12:26.822Z,9.63
2023-01-13T06:13:26.733Z,9.61
2023-01-13T06:14:26.659Z,9.65
2023-01-13T06:15:26.571Z,9.53
2023-01-13T06:16:26.558Z,9.53
2023-01-13T06:17:26.408Z,9.61
2023-01-13T06:18:26.321Z,9.49
2023-01-13T06:19:26.248Z,9.38
2023-01-13T06:20:26.172Z,9.34
2023-01-13T06:21:26.081Z,9.37
2023-01-13T06:22:26.013Z,9.37
2023-01-13T06:23:25.918Z,9.37
2023-01-13T06:24:25.841Z,9.38
2023-01-13T06:25:25.755Z,9.34
2023-01-13T06:26:25.680Z,9.38
2023-01-13T06:27:25.620Z,9.32
2023-01-13T06:28:25.512Z,9.43
2023-01-13T06:29:25.430Z,9.40
2023-01-13T06:30:25.347Z,9.35
2023-01-13T06:31:25.291Z,9.37
2023-01-13T06:32:25.187Z,9.43
2023-01-13T06:33:25.135Z,9.43
2023-01-13T06:34:25.023Z,9.34
2023-01-13T06:35:24.935Z,9.37
2023-01-13T06:36:24.866Z,9.40
2023-01-13T06:37:24.777Z,9.32
2023-01-13T06:38:24.696Z,9.37
2023-01-13T06:39:24.616Z,9.37
2023-01-13T06:40:24.547Z,9.38
2023-01-13T06:41:24.455Z,9.42
2023-01-13T06:42:24.374Z,9.42
2023-01-13T06:43:24.292Z,9.40
2023-01-13T06:44:24.212Z,9.38
2023-01-13T06:45:24.132Z,9.37
2023-01-13T06:46:24.119Z,9.35
2023-01-13T06:47:23.962Z,9.40
2023-01-13T06:48:23.878Z,9.35
2023-01-13T06:49:23.798Z,9.35
2023-01-13T06:50:23.722Z,9.34
2023-01-13T06:51:23.635Z,9.32
2023-01-13T06:52:23.593Z,9.29
2023-01-13T06:53:23.477Z,9.25
2023-01-13T06:54:23.390Z,9.27
2023-01-13T06:55:23.309Z,9.32
2023-01-13T06:56:23.232Z,9.32
2023-01-13T06:57:23.153Z,9.32
2023-01-13T06:58:23.060Z,9.35
2023-01-13T06:59:22.980Z,9.24
2023-01-13T07:00:22.902Z,9.27
2023-01-13T07:01:22.985Z,9.27
2023-01-13T07:02:22.892Z,9.22
2023-01-13T07:03:22.652Z,9.24
2023-01-13T07:04:22.572Z,9.20
2023-01-13T07:05:22.533Z,9.12
2023-01-13T07:06:22.410Z,9.24
2023-01-13T07:07:22.333Z,9.13
2023-01-13T07:08:22.263Z,9.25
2023-01-13T07:09:22.183Z,9.19
2023-01-13T07:10:22.246Z,9.12
2023-01-13T07:11:22.012Z,9.13
2023-01-13T07:12:21.929Z,9.19
2023-01-13T07:13:21.857Z,9.24
2023-01-13T07:14:21.775Z,9.25
2023-01-13T07:15:21.679Z,9.12
2023-01-13T07:16:21.633Z,9.22
2023-01-13T07:17:21.526Z,9.22
2023-01-13T07:18:21.432Z,9.25
2023-01-13T07:19:22.223Z,9.28
2023-01-13T07:20:21.272Z,9.28
2023-01-13T07:21:21.190Z,9.16
2023-01-13T07:22:21.110Z,9.24
2023-01-13T07:23:21.044Z,9.16
2023-01-13T07:24:20.950Z,9.19
2023-01-13T07:25:20.870Z,9.28
2023-01-13T07:26:20.787Z,9.25
2023-01-13T07:27:20.696Z,9.22
2023-01-13T07:28:20.615Z,9.13
2023-01-13T07:29:20.538Z,9.25
2023-01-13T07:30:20.461Z,9.27
2023-01-13T07:31:20.439Z,9.16
2023-01-13T07:32:20.291Z,9.24
2023-01-13T07:33:20.209Z,9.29
2023-01-13T07:34:20.137Z,9.24
2023-01-13T07:35:20.043Z,9.32
2023-01-13T07:36:19.974Z,9.29
2023-01-13T07:37:19.886Z,9.31
2023-01-13T07:38:19.812Z,9.24
2023-01-13T07:39:19.715Z,9.34
2023-01-13T07:40:19.642Z,9.25
2023-01-13T07:41:19.564Z,9.22
2023-01-13T07:42:19.473Z,9.24
2023-01-13T07:43:19.389Z,9.31
2023-01-13T07:44:19.315Z,9.27
2023-01-13T07:45:19.239Z,9.28
2023-01-13T07:46:19.159Z,9.31
2023-01-13T07:47:19.066Z,9.38
2023-01-13T07:48:18.981Z,9.40
2023-01-13T07:49:18.904Z,9.38
2023-01-13T07:50:18.820Z,9.42
2023-01-13T07:51:18.742Z,9.38
2023-01-13T07:52:18.660Z,9.43
2023-01-13T07:53:18.572Z,9.40
2023-01-13T07:54:19.429Z,9.40
2023-01-13T07:55:18.408Z,9.35
2023-01-13T07:56:18.339Z,9.37
2023-01-13T07:57:18.247Z,9.40
2023-01-13T07:58:18.172Z,9.40
2023-01-13T07:59:18.082Z,9.35
2023-01-13T08:00:18.004Z,9.37
2023-01-13T08:01:18.022Z,9.45
2023-01-13T08:02:18.030Z,9.47
2023-01-13T08:03:17.761Z,9.47
2023-01-13T08:04:17.680Z,9.45
2023-01-13T08:05:17.606Z,9.46
2023-01-13T08:06:17.510Z,9.50
2023-01-13T08:07:17.446Z,9.58
2023-01-13T08:08:17.359Z,9.53
2023-01-13T08:09:17.265Z,9.53
2023-01-13T08:10:17.186Z,9.49
2023-01-13T08:11:17.102Z,9.47
2023-01-13T08:12:17.022Z,9.58
2023-01-13T08:13:16.938Z,9.58
2023-01-13T08:14:16.859Z,9.58
2023-01-13T08:15:16.782Z,9.58
2023-01-13T08:16:16.745Z,9.58
2023-01-13T08:17:17.754Z,9.55
2023-01-13T08:18:16.533Z,9.67
2023-01-13T08:19:16.455Z,9.68
2023-01-13T08:20:16.368Z,9.70
2023-01-13T08:21:16.288Z,9.71
2023-01-13T08:22:16.211Z,9.67
2023-01-13T08:23:16.133Z,9.74
2023-01-13T08:24:16.044Z,9.71
2023-01-13T08:25:15.959Z,9.63
2023-01-13T08:26:15.891Z,9.67
2023-01-13T08:27:15.797Z,9.72
2023-01-13T08:28:15.733Z,9.74
2023-01-13T08:29:15.641Z,9.75
2023-01-13T08:30:15.551Z,9.80
2023-01-13T08:31:15.511Z,9.71
2023-01-13T08:32:15.388Z,9.82
2023-01-13T08:33:15.311Z,9.86
2023-01-13T08:34:15.235Z,9.80
2023-01-13T08:35:15.141Z,9.85
2023-01-13T08:36:15.066Z,9.72
2023-01-13T08:37:15.041Z,9.64
2023-01-13T08:38:14.902Z,9.67
2023-01-13T08:39:14.827Z,9.71
2023-01-13T08:40:14.745Z,9.65
2023-01-13T08:41:14.668Z,9.68
2023-01-13T08:42:14.575Z,9.75
2023-01-13T08:43:14.498Z,9.70
2023-01-13T08:44:14.411Z,9.74
2023-01-13T08:45:14.334Z,9.67
2023-01-13T08:46:14.251Z,9.74
2023-01-13T08:47:14.165Z,9.78
2023-01-13T08:48:14.086Z,9.75
2023-01-13T08:49:14.006Z,9.85
2023-01-13T08:50:13.928Z,9.82
2023-01-13T08:51:13.847Z,9.83
2023-01-13T08:52:13.768Z,9.89
2023-01-13T08:53:13.681Z,9.85
2023-01-13T08:54:13.597Z,9.82
2023-01-13T08:55:13.512Z,9.90
2023-01-13T08:56:13.429Z,9.74
2023-01-13T08:57:13.404Z,9.96
2023-01-13T08:58:16.437Z,9.92
2023-01-13T08:59:13.208Z,9.85
2023-01-13T09:00:13.112Z,9.82
2023-01-13T09:01:13.100Z,9.97
2023-01-13T09:02:13.136Z,9.90
2023-01-13T09:03:12.878Z,9.89
2023-01-13T09:04:12.803Z,9.93
2023-01-13T09:05:12.704Z,9.92
2023-01-13T09:06:12.618Z,9.90
2023-01-13T09:07:12.538Z,9.89
2023-01-13T09:08:12.458Z,9.98
2023-01-13T09:09:12.386Z,9.90
2023-01-13T09:10:12.289Z,9.89
2023-01-13T09:11:12.215Z,10.00
2023-01-13T09:12:12.131Z,9.93
2023-01-13T09:13:12.079Z,9.89
2023-01-13T09:14:11.975Z,9.97
2023-01-13T09:15:11.885Z,9.90
2023-01-13T09:16:11.866Z,10.01
2023-01-13T09:17:11.739Z,10.01
2023-01-13T09:18:11.673Z,10.10
2023-01-13T09:19:11.560Z,10.04
2023-01-13T09:20:11.474Z,10.06
2023-01-13T09:21:11.402Z,10.04
2023-01-13T09:22:11.316Z,10.08
2023-01-13T09:23:11.531Z,10.16
2023-01-13T09:24:11.156Z,10.07
2023-01-13T09:25:11.073Z,10.16
2023-01-13T09:26:10.998Z,10.11
2023-01-13T09:27:10.915Z,10.16
2023-01-13T09:28:10.833Z,10.16
2023-01-13T09:29:10.757Z,10.13
2023-01-13T09:30:10.664Z,10.28
2023-01-13T09:31:10.645Z,10.16
2023-01-13T09:32:10.520Z,10.25
2023-01-13T09:33:10.422Z,10.21
2023-01-13T09:34:10.387Z,10.23
2023-01-13T09:35:10.268Z,10.21
2023-01-13T09:36:10.180Z,10.21
2023-01-13T09:37:10.102Z,10.11
2023-01-13T09:38:10.013Z,10.19
2023-01-13T09:39:09.933Z,10.10
2023-01-13T09:40:09.881Z,10.15
2023-01-13T09:41:09.776Z,10.13
2023-01-13T09:42:09.687Z,10.07
2023-01-13T09:43:09.617Z,10.07
2023-01-13T09:44:09.528Z,10.07
2023-01-13T09:45:09.465Z,10.08
2023-01-13T09:46:09.387Z,10.11
2023-01-13T09:47:09.307Z,10.10
2023-01-13T09:48:09.215Z,10.10
2023-01-13T09:49:09.122Z,10.06
2023-01-13T09:50:09.042Z,9.98
2023-01-13T09:51:08.977Z,10.07
2023-01-13T09:52:08.875Z,10.10
2023-01-13T09:53:08.803Z,10.01
2023-01-13T09:54:08.715Z,10.03
2023-01-13T09:55:08.643Z,10.07
2023-01-13T09:56:08.551Z,10.11
2023-01-13T09:57:08.471Z,10.04
2023-01-13T09:58:08.844Z,10.04
2023-01-13T09:59:08.307Z,10.18
2023-01-13T10:00:08.224Z,10.21
2023-01-13T10:01:08.164Z,10.16
2023-01-13T10:02:08.068Z,10.16
2023-01-13T10:03:08.020Z,10.13
2023-01-13T10:04:09.238Z,10.15
2023-01-13T10:05:07.931Z,10.11
2023-01-13T10:06:07.739Z,10.15
2023-01-13T10:07:07.660Z,10.06
2023-01-13T10:08:07.588Z,10.06
2023-01-13T10:09:07.496Z,10.10
2023-01-13T10:10:09.397Z,10.06
2023-01-13T10:11:07.334Z,10.11
2023-01-13T10:12:07.280Z,10.10
2023-01-13T10:13:07.173Z,10.04
2023-01-13T10:14:07.094Z,10.06
2023-01-13T10:15:07.023Z,10.04
2023-01-13T10:16:07.123Z,10.00
2023-01-13T10:17:06.851Z,9.97
2023-01-13T10:18:06.764Z,9.88
2023-01-13T10:19:06.705Z,9.93
2023-01-13T10:20:06.617Z,9.92
2023-01-13T10:21:06.521Z,9.93
2023-01-13T10:22:08.512Z,9.86
2023-01-13T10:23:06.360Z,9.88
2023-01-13T10:24:06.276Z,9.82
2023-01-13T10:25:06.194Z,9.75
2023-01-13T10:26:06.148Z,9.75
2023-01-13T10:27:06.047Z,9.88
2023-01-13T10:28:05.948Z,9.85
2023-01-13T10:29:05.880Z,9.85
2023-01-13T10:30:05.789Z,9.75
2023-01-13T10:31:05.731Z,9.64
2023-01-13T10:32:05.630Z,9.70
2023-01-13T10:33:05.555Z,9.58
2023-01-13T10:34:05.465Z,9.64
2023-01-13T10:35:05.383Z,9.53
2023-01-13T10:36:05.321Z,9.55
2023-01-13T10:37:05.220Z,9.50
2023-01-13T10:38:05.141Z,9.37
2023-01-13T10:39:05.063Z,9.34
2023-01-13T10:40:04.976Z,9.25
2023-01-13T10:41:04.891Z,9.31
2023-01-13T10:42:04.812Z,9.29
2023-01-13T10:43:04.732Z,9.28
2023-01-13T10:44:04.661Z,9.24
2023-01-13T10:45:04.571Z,9.16
2023-01-13T10:46:04.570Z,9.12
2023-01-13T10:47:04.404Z,9.13
2023-01-13T10:48:04.348Z,9.29
2023-01-13T10:49:04.249Z,9.14
2023-01-13T10:50:04.163Z,9.13
2023-01-13T10:51:04.077Z,9.29
2023-01-13T10:52:04.024Z,9.22
2023-01-13T10:53:03.919Z,9.13
2023-01-13T10:54:03.836Z,9.17
2023-01-13T10:55:03.756Z,9.25
2023-01-13T10:56:03.666Z,9.20
2023-01-13T10:57:03.592Z,9.25
2023-01-13T10:58:03.508Z,9.20
2023-01-13T10:59:03.437Z,9.20
2023-01-13T11:00:03.343Z,9.27
2023-01-13T11:01:03.353Z,9.28
2023-01-13T11:02:13.051Z,9.13
2023-01-13T11:03:03.105Z,9.29
2023-01-13T11:04:03.032Z,9.22
2023-01-13T11:05:03.031Z,9.13
2023-01-13T11:06:02.858Z,9.32
2023-01-13T11:07:02.775Z,9.10
2023-01-13T11:08:02.693Z,9.24
2023-01-13T11:09:02.626Z,9.17
2023-01-13T11:10:02.530Z,9.20
2023-01-13T11:11:02.474Z,9.13
2023-01-13T11:12:02.362Z,9.28
2023-01-13T11:13:02.281Z,9.16
2023-01-13T11:14:02.208Z,9.27
2023-01-13T11:15:02.126Z,9.20
2023-01-13T11:16:02.062Z,9.14
2023-01-13T11:17:01.979Z,9.16
2023-01-13T11:18:01.876Z,9.17
2023-01-13T11:19:01.796Z,9.22
2023-01-13T11:20:01.712Z,9.28
2023-01-13T11:21:01.632Z,9.12
2023-01-13T11:22:01.545Z,9.25
2023-01-13T11:23:01.471Z,9.25
2023-01-13T11:24:01.422Z,9.09
2023-01-13T11:25:01.305Z,9.27
2023-01-13T11:26:01.225Z,9.24
2023-01-13T11:27:01.146Z,9.25
2023-01-13T11:28:01.064Z,9.24
2023-01-13T11:29:00.993Z,9.28
2023-01-13T11:30:00.896Z,9.13
2023-01-13T11:31:00.850Z,9.12
2023-01-13T11:32:00.743Z,9.27
2023-01-13T11:33:00.663Z,9.12
2023-01-13T11:34:00.571Z,9.14
2023-01-13T11:35:00.504Z,9.12
2023-01-13T11:36:00.408Z,9.25
2023-01-13T11:37:00.340Z,9.28
2023-01-13T11:38:00.241Z,9.19
2023-01-13T11:39:00.165Z,9.22
2023-01-13T11:40:00.109Z,9.24
2023-01-13T11:41:00.000Z,9.09
2023-01-13T11:41:59.919Z,9.24
2023-01-13T11:42:59.835Z,9.32
2023-01-13T11:43:59.753Z,9.40
2023-01-13T11:44:59.672Z,9.37
2023-01-13T11:45:59.593Z,9.28
2023-01-13T11:46:59.520Z,9.29
2023-01-13T11:47:59.441Z,9.38
2023-01-13T11:48:59.346Z,9.32
2023-01-13T11:49:59.273Z,9.35
2023-01-13T11:50:59.198Z,9.34
2023-01-13T11:51:59.104Z,9.37
2023-01-13T11:52:59.024Z,9.37
2023-01-13T11:53:58.939Z,9.37
2023-01-13T11:54:58.861Z,9.42
2023-01-13T11:55:58.776Z,9.49
2023-01-13T11:56:58.716Z,9.38
2023-01-13T11:57:58.618Z,9.38
2023-01-13T11:58:58.536Z,9.38
2023-01-13T11:59:58.451Z,9.45
2023-01-13T12:00:58.400Z,9.37
2023-01-13T12:01:58.330Z,9.42
2023-01-13T12:02:58.265Z,9.34
2023-01-13T12:03:58.130Z,9.40
2023-01-13T12:04:58.047Z,9.35
2023-01-13T12:05:57.968Z,9.43
2023-01-13T12:06:57.881Z,9.40
2023-01-13T12:07:57.797Z,9.47
2023-01-13T12:08:57.742Z,9.50
2023-01-13T12:09:57.639Z,9.45
2023-01-13T12:10:57.570Z,9.43
2023-01-13T12:11:57.480Z,9.42
2023-01-13T12:12:59.475Z,9.46
2023-01-13T12:13:57.312Z,9.38
2023-01-13T12:14:57.230Z,9.52
2023-01-13T12:15:57.169Z,9.53
2023-01-13T12:16:57.069Z,9.43
2023-01-13T12:17:56.992Z,9.52
2023-01-13T12:18:56.909Z,9.52
2023-01-13T12:19:56.824Z,9.61
2023-01-13T12:20:56.745Z,9.65
2023-01-13T12:21:56.663Z,9.86
2023-01-13T12:22:56.586Z,9.90
2023-01-13T12:23:56.494Z,9.80
2023-01-13T12:24:56.420Z,9.93
2023-01-13T12:25:56.334Z,9.93
2023-01-13T12:26:56.257Z,10.01
2023-01-13T12:27:56.182Z,9.89
2023-01-13T12:28:56.174Z,9.89
2023-01-13T12:29:56.007Z,9.96
2023-01-13T12:30:55.935Z,9.93
2023-01-13T12:31:55.939Z,9.97
2023-01-13T12:32:55.787Z,9.88
2023-01-13T12:33:55.681Z,9.97
2023-01-13T12:34:55.607Z,10.03
2023-01-13T12:35:55.527Z,10.10
2023-01-13T12:36:55.446Z,10.06
2023-01-13T12:37:55.359Z,10.07
2023-01-13T12:38:55.284Z,10.16
2023-01-13T12:39:55.195Z,10.18
2023-01-13T12:40:55.118Z,10.16
2023-01-13T12:41:55.037Z,10.15
2023-01-13T12:42:54.953Z,10.15
2023-01-13T12:43:54.878Z,10.19
2023-01-13T12:44:54.789Z,10.11
2023-01-13T12:45:54.749Z,10.16
2023-01-13T12:46:54.630Z,10.15
2023-01-13T12:47:54.551Z,10.11
2023-01-13T12:48:54.472Z,10.15
2023-01-13T12:49:54.398Z,10.11
2023-01-13T12:50:54.303Z,10.15
2023-01-13T12:51:54.229Z,10.21
2023-01-13T12:52:54.142Z,10.06
2023-01-13T12:53:54.062Z,10.06
2023-01-13T12:54:53.973Z,10.10
2023-01-13T12:55:53.911Z,10.11
2023-01-13T12:56:53.818Z,10.07
2023-01-13T12:57:53.751Z,10.08
2023-01-13T12:58:53.654Z,10.07
2023-01-13T12:59:53.580Z,9.97
2023-01-13T13:00:53.556Z,9.93
2023-01-13T13:01:53.549Z,10.01
2023-01-13T13:02:53.372Z,9.90
2023-01-13T13:03:53.252Z,9.83
2023-01-13T13:04:53.171Z,9.96
2023-01-13T13:05:53.094Z,9.92
2023-01-13T13:06:53.012Z,9.79
2023-01-13T13:07:52.928Z,9.86
2023-01-13T13:08:52.847Z,9.88
2023-01-13T13:09:52.770Z,9.82